< < Back
Terminal Aerodrome Forecast


Current Version              Previous Versions:   1  2  3  4  5  6  7  8  9  

Terminal Aerodrome Forecast

045
FTUS42 KILM 061136 CCA
TAFILM
TAF COR
KILM 061136Z 0612/0712 02008KT P6SM BKN060 BKN120
     FM062200 02008KT P6SM SCT040 BKN050
     FM070300 36011G20KT P6SM -RA SCT025 OVC050=



Latest METAR

782
SAUS70 KWBC 070600 RRI
MTRILM
METAR KILM 070553Z AUTO 01012KT 10SM -RA OVC070 04/01 A3015 RMK AO2
SLP210 P0006 60011 T00440011 10072 20044 58015


USA.gov is the U.S. government's official web portal to all federal, state and local government web resources and services.